createdAt,value
2022-12-06T00:01:20.408Z,99612.63
2022-12-06T00:03:51.292Z,99612.75
2022-12-06T00:06:20.233Z,99607.47
2022-12-06T00:08:47.785Z,99611.16
2022-12-06T00:11:20.650Z,99608.34
2022-12-06T00:13:48.170Z,99610.22
2022-12-06T00:16:16.869Z,99611.22
2022-12-06T00:18:44.866Z,99612.06
2022-12-06T00:21:17.111Z,99602.38
2022-12-06T00:23:49.238Z,99604.22
2022-12-06T00:26:16.060Z,99605.25
2022-12-06T00:28:43.009Z,99599.81
2022-12-06T00:31:13.498Z,99604.31
2022-12-06T00:33:39.915Z,99603.38
2022-12-06T00:36:17.839Z,99604.53
2022-12-06T00:38:44.987Z,99601.06
2022-12-06T00:41:14.427Z,99600.09
2022-12-06T00:43:41.145Z,99610.69
2022-12-06T00:46:10.593Z,99605.25
2022-12-06T00:48:37.162Z,99607.97
2022-12-06T00:51:03.756Z,99601.66
2022-12-06T00:53:30.178Z,99608.66
2022-12-06T00:55:56.679Z,99599.72
2022-12-06T00:58:23.478Z,99595.91
2022-12-06T01:00:50.153Z,99597.28
2022-12-06T01:03:16.929Z,99590.47
2022-12-06T01:05:49.459Z,99589.59
2022-12-06T01:08:17.618Z,99595.91
2022-12-06T01:10:54.590Z,99601.25
2022-12-06T01:13:21.344Z,99601.81
2022-12-06T01:15:48.022Z,99602.72
2022-12-06T01:18:14.443Z,99595.59
2022-12-06T01:20:41.542Z,99596.44
2022-12-06T01:23:07.944Z,99595.75
2022-12-06T01:25:36.415Z,99595.75
2022-12-06T01:28:03.668Z,99595.91
2022-12-06T01:30:30.536Z,99594.25
2022-12-06T01:32:56.980Z,99596.91
2022-12-06T01:35:23.544Z,99600.50
2022-12-06T01:37:49.918Z,99595.06
2022-12-06T01:40:16.495Z,99597.78
2022-12-06T01:42:43.029Z,99598.69
2022-12-06T01:45:10.212Z,99601.50
2022-12-06T01:47:43.689Z,99589.16
2022-12-06T01:50:17.466Z,99599.03
2022-12-06T01:52:59.168Z,99599.94
2022-12-06T01:55:30.571Z,99589.06
2022-12-06T01:57:59.524Z,99586.72
2022-12-06T02:00:26.447Z,99584.00
2022-12-06T02:02:54.655Z,99583.16
2022-12-06T02:05:21.202Z,99580.25
2022-12-06T02:07:48.369Z,99574.06
2022-12-06T02:10:15.013Z,99582.38
2022-12-06T02:12:41.387Z,99571.09
2022-12-06T02:15:08.565Z,99575.38
2022-12-06T02:17:56.142Z,99574.63
2022-12-06T02:20:44.612Z,99576.31
2022-12-06T02:23:23.656Z,99571.97
2022-12-06T02:26:28.544Z,99571.97
2022-12-06T02:29:20.175Z,99568.44
2022-12-06T02:31:58.211Z,99569.06
2022-12-06T02:34:27.389Z,99569.41
2022-12-06T02:37:17.831Z,99566.50
2022-12-06T02:39:54.815Z,99560.59
2022-12-06T02:42:27.000Z,99563.25
2022-12-06T02:44:56.028Z,99564.88
2022-12-06T02:47:31.529Z,99563.09
2022-12-06T02:50:00.458Z,99564.97
2022-12-06T02:52:28.572Z,99563.44
2022-12-06T02:54:58.185Z,99566.91
2022-12-06T02:57:41.576Z,99559.97
2022-12-06T03:00:31.515Z,99564.50
2022-12-06T03:03:04.359Z,99558.38
2022-12-06T03:06:01.877Z,99563.50
2022-12-06T03:08:50.289Z,99554.53
2022-12-06T03:11:17.207Z,99550.34
2022-12-06T03:14:05.540Z,99559.97
2022-12-06T03:16:55.575Z,99558.91
2022-12-06T03:19:24.785Z,99553.63
2022-12-06T03:22:08.431Z,99560.44
2022-12-06T03:24:37.427Z,99558.66
2022-12-06T03:27:12.140Z,99558.50
2022-12-06T03:29:44.500Z,99554.09
2022-12-06T03:32:13.943Z,99562.94
2022-12-06T03:34:44.628Z,99550.56
2022-12-06T03:37:15.739Z,99547.94
2022-12-06T03:40:01.617Z,99548.81
2022-12-06T03:42:29.097Z,99550.34
2022-12-06T03:44:55.706Z,99548.47
2022-12-06T03:47:41.824Z,99543.72
2022-12-06T03:50:13.981Z,99538.66
2022-12-06T03:52:40.741Z,99543.03
2022-12-06T03:55:07.961Z,99533.97
2022-12-06T03:57:34.834Z,99535.94
2022-12-06T04:00:01.683Z,99539.56
2022-12-06T04:02:28.304Z,99534.16
2022-12-06T04:04:54.698Z,99540.38
2022-12-06T04:07:21.301Z,99535.84
2022-12-06T04:10:02.757Z,99535.72
2022-12-06T04:12:50.489Z,99532.91
2022-12-06T04:15:17.208Z,99529.38
2022-12-06T04:18:02.916Z,99527.53
2022-12-06T04:20:50.862Z,99537.25
2022-12-06T04:23:18.614Z,99531.09
2022-12-06T04:25:45.921Z,99537.09
2022-12-06T04:28:31.091Z,99537.94
2022-12-06T04:31:21.747Z,99535.22
2022-12-06T04:34:08.570Z,99536.94
2022-12-06T04:36:54.442Z,99537.78
2022-12-06T04:39:21.296Z,99534.91
2022-12-06T04:42:07.220Z,99540.34
2022-12-06T04:44:33.808Z,99545.47
2022-12-06T04:47:00.792Z,99544.38
2022-12-06T04:49:27.495Z,99533.09
2022-12-06T04:51:54.694Z,99535.59
2022-12-06T04:54:22.601Z,99542.31
2022-12-06T04:56:49.262Z,99540.63
2022-12-06T04:59:16.415Z,99535.34
2022-12-06T05:01:42.843Z,99544.13
2022-12-06T05:04:09.486Z,99537.81
2022-12-06T05:06:36.009Z,99540.44
2022-12-06T05:09:04.107Z,99534.91
2022-12-06T05:11:30.618Z,99542.78
2022-12-06T05:13:57.274Z,99539.22
2022-12-06T05:16:23.714Z,99542.78
2022-12-06T05:18:50.419Z,99538.09
2022-12-06T05:21:19.218Z,99546.19
2022-12-06T05:23:46.958Z,99535.97
2022-12-06T05:26:16.494Z,99534.06
2022-12-06T05:28:50.569Z,99538.53
2022-12-06T05:31:18.180Z,99537.56
2022-12-06T05:33:45.273Z,99535.75
2022-12-06T05:36:20.903Z,99545.25
2022-12-06T05:38:51.562Z,99541.84
2022-12-06T05:41:19.936Z,99540.66
2022-12-06T05:43:46.459Z,99546.78
2022-12-06T05:46:13.075Z,99546.03
2022-12-06T05:48:39.477Z,99544.75
2022-12-06T05:51:06.056Z,99540.59
2022-12-06T05:53:32.454Z,99544.00
2022-12-06T05:56:10.536Z,99545.53
2022-12-06T05:58:37.513Z,99541.44
2022-12-06T06:01:05.321Z,99540.50
2022-12-06T06:03:31.810Z,99541.19
2022-12-06T06:06:00.209Z,99531.53
2022-12-06T06:08:27.954Z,99531.53
2022-12-06T06:10:54.867Z,99549.88
2022-12-06T06:13:21.388Z,99533.25
2022-12-06T06:15:49.765Z,99542.03
2022-12-06T06:18:17.429Z,99532.22
2022-12-06T06:20:49.472Z,99548.97
2022-12-06T06:23:16.712Z,99548.97
2022-12-06T06:25:43.095Z,99543.47
2022-12-06T06:28:09.651Z,99547.16
2022-12-06T06:30:36.097Z,99550.66
2022-12-06T06:33:02.586Z,99546.41
2022-12-06T06:35:29.473Z,99544.28
2022-12-06T06:37:55.927Z,99548.59
2022-12-06T06:40:22.371Z,99544.34
2022-12-06T06:42:48.815Z,99545.13
2022-12-06T06:45:15.388Z,99536.25
2022-12-06T06:47:41.739Z,99539.38
2022-12-06T06:50:09.003Z,99540.28
2022-12-06T06:52:35.419Z,99537.69
2022-12-06T06:55:01.921Z,99535.81
2022-12-06T06:57:28.594Z,99540.88
2022-12-06T06:59:56.262Z,99542.03
2022-12-06T07:02:22.761Z,99542.03
2022-12-06T07:04:49.884Z,99545.56
2022-12-06T07:07:21.042Z,99544.59
2022-12-06T07:09:49.062Z,99546.09
2022-12-06T07:12:15.469Z,99541.97
2022-12-06T07:14:42.093Z,99543.59
2022-12-06T07:17:08.531Z,99545.19
2022-12-06T07:19:35.120Z,99542.63
2022-12-06T07:22:01.514Z,99540.59
2022-12-06T07:24:27.880Z,99548.63
2022-12-06T07:26:56.678Z,99537.19
2022-12-06T07:29:23.058Z,99541.47
2022-12-06T07:31:49.681Z,99542.22
2022-12-06T07:34:16.430Z,99549.41
2022-12-06T07:36:42.998Z,99547.69
2022-12-06T07:39:14.572Z,99546.69
2022-12-06T07:42:00.186Z,99541.38
2022-12-06T07:44:45.158Z,99543.75
2022-12-06T07:47:11.539Z,99547.38
2022-12-06T07:49:38.091Z,99549.81
2022-12-06T07:52:04.585Z,99549.72
2022-12-06T07:54:31.435Z,99543.50
2022-12-06T07:56:57.944Z,99554.09
2022-12-06T07:59:25.539Z,99549.47
2022-12-06T08:01:52.920Z,99552.13
2022-12-06T08:04:20.136Z,99546.91
2022-12-06T08:06:46.742Z,99549.56
2022-12-06T08:09:14.463Z,99552.97
2022-12-06T08:11:40.911Z,99550.16
2022-12-06T08:14:07.450Z,99551.59
2022-12-06T08:16:33.861Z,99548.13
2022-12-06T08:19:01.007Z,99547.28
2022-12-06T08:21:27.400Z,99556.91
2022-12-06T08:23:54.910Z,99557.63
2022-12-06T08:26:21.546Z,99560.25
2022-12-06T08:28:48.414Z,99562.63
2022-12-06T08:31:20.441Z,99559.06
2022-12-06T08:33:47.588Z,99563.59
2022-12-06T08:36:24.453Z,99570.56
2022-12-06T08:38:52.252Z,99569.66
2022-12-06T08:41:38.196Z,99568.78
2022-12-06T08:44:05.319Z,99577.44
2022-12-06T08:46:33.703Z,99567.59
2022-12-06T08:49:01.506Z,99577.16
2022-12-06T08:51:28.539Z,99585.44
2022-12-06T08:53:55.651Z,99576.22
2022-12-06T08:56:23.495Z,99587.25
2022-12-06T08:58:51.796Z,99582.97
2022-12-06T09:01:21.848Z,99582.19
2022-12-06T09:03:48.733Z,99592.53
2022-12-06T09:06:18.066Z,99596.28
2022-12-06T09:08:45.175Z,99584.50
2022-12-06T09:11:11.991Z,99594.75
2022-12-06T09:13:38.978Z,99580.56
2022-12-06T09:16:07.906Z,99582.75
2022-12-06T09:18:34.459Z,99584.22
2022-12-06T09:21:05.837Z,99585.00
2022-12-06T09:23:32.988Z,99582.09
2022-12-06T09:25:59.339Z,99575.56
2022-12-06T09:28:25.837Z,99584.66
2022-12-06T09:30:52.442Z,99582.00
2022-12-06T09:33:18.957Z,99592.25
2022-12-06T09:35:45.590Z,99595.09
2022-12-06T09:38:11.962Z,99594.03
2022-12-06T09:40:53.691Z,99595.94
2022-12-06T09:44:04.878Z,99594.72
2022-12-06T09:47:03.185Z,99594.81
2022-12-06T09:49:48.793Z,99599.84
2022-12-06T09:52:22.324Z,99608.16
2022-12-06T09:55:18.176Z,99601.56
2022-12-06T09:58:03.401Z,99601.97
2022-12-06T10:00:40.977Z,99603.47
2022-12-06T10:03:45.421Z,99606.56
2022-12-06T10:06:14.654Z,99597.59
2022-12-06T10:09:11.594Z,99593.06
2022-12-06T10:11:43.537Z,99597.44
2022-12-06T10:14:12.866Z,99600.09
2022-12-06T10:17:04.424Z,99596.69
2022-12-06T10:19:48.345Z,99589.78
2022-12-06T10:22:23.935Z,99590.16
2022-12-06T10:25:15.003Z,99591.75
2022-12-06T10:28:16.394Z,99587.25
2022-12-06T10:30:52.292Z,99590.06
2022-12-06T10:33:21.855Z,99583.81
2022-12-06T10:35:56.321Z,99583.72
2022-12-06T10:38:32.589Z,99577.31
2022-12-06T10:41:17.659Z,99579.00
2022-12-06T10:44:06.787Z,99578.91
2022-12-06T10:47:03.810Z,99580.91
2022-12-06T10:50:08.114Z,99575.16
2022-12-06T10:52:54.946Z,99575.81
2022-12-06T10:55:42.218Z,99571.34
2022-12-06T10:58:25.660Z,99570.44
2022-12-06T11:00:59.421Z,99569.47
2022-12-06T11:03:41.166Z,99575.72
2022-12-06T11:06:15.596Z,99565.31
2022-12-06T11:08:54.355Z,99570.97
2022-12-06T11:11:28.708Z,99562.25
2022-12-06T11:14:15.966Z,99566.72
2022-12-06T11:16:51.808Z,99558.50
2022-12-06T11:19:38.135Z,99559.25
2022-12-06T11:22:33.378Z,99551.56
2022-12-06T11:25:08.668Z,99555.06
2022-12-06T11:28:07.899Z,99549.22
2022-12-06T11:30:34.479Z,99547.50
2022-12-06T11:33:08.852Z,99542.88
2022-12-06T11:35:35.304Z,99549.72
2022-12-06T11:38:05.306Z,99551.13
2022-12-06T11:40:36.634Z,99539.38
2022-12-06T11:43:07.470Z,99545.44
2022-12-06T11:45:37.903Z,99541.66
2022-12-06T11:48:15.276Z,99549.63
2022-12-06T11:50:42.242Z,99546.56
2022-12-06T11:53:26.967Z,99543.66
2022-12-06T11:56:00.697Z,99546.22
2022-12-06T11:58:46.985Z,99549.63
2022-12-06T12:01:15.991Z,99546.59
2022-12-06T12:03:44.754Z,99552.84
2022-12-06T12:06:24.899Z,99551.03
2022-12-06T12:08:55.872Z,99542.03
2022-12-06T12:11:25.725Z,99549.34
2022-12-06T12:14:12.709Z,99547.75
2022-12-06T12:16:48.663Z,99536.16
2022-12-06T12:19:27.314Z,99547.16
2022-12-06T12:21:55.794Z,99541.94
2022-12-06T12:27:32.771Z,99546.09
2022-12-06T12:30:18.234Z,99531.88
2022-12-06T12:32:45.128Z,99546.97
2022-12-06T12:35:20.546Z,99539.00
2022-12-06T12:37:51.196Z,99539.56
2022-12-06T12:40:29.896Z,99543.00
2022-12-06T12:42:59.740Z,99538.06
2022-12-06T12:45:27.685Z,99538.91
2022-12-06T12:47:58.595Z,99537.47
2022-12-06T12:50:25.543Z,99532.16
2022-12-06T12:52:52.728Z,99534.63
2022-12-06T12:55:20.937Z,99526.84
2022-12-06T12:57:50.356Z,99532.72
2022-12-06T13:00:20.169Z,99531.19
2022-12-06T13:03:03.757Z,99526.28
2022-12-06T13:05:40.624Z,99525.22
2022-12-06T13:08:15.449Z,99526.28
2022-12-06T13:10:46.725Z,99525.88
2022-12-06T13:13:35.769Z,99518.84
2022-12-06T13:16:10.618Z,99520.75
2022-12-06T13:18:52.627Z,99512.41
2022-12-06T13:21:40.219Z,99516.59
2022-12-06T13:24:18.208Z,99520.75
2022-12-06T13:26:50.044Z,99517.25
2022-12-06T13:29:24.946Z,99519.59
2022-12-06T13:31:53.739Z,99520.00
2022-12-06T13:34:23.177Z,99523.78
2022-12-06T13:36:52.159Z,99523.22
2022-12-06T13:39:30.984Z,99524.94
2022-12-06T13:42:17.913Z,99518.69
2022-12-06T13:44:50.258Z,99519.63
2022-12-06T13:47:28.929Z,99518.56
2022-12-06T13:50:00.407Z,99522.84
2022-12-06T13:52:42.161Z,99517.81
2022-12-06T13:55:23.919Z,99512.22
2022-12-06T13:57:59.711Z,99521.34
2022-12-06T14:00:28.946Z,99509.19
2022-12-06T14:03:23.526Z,99510.59
2022-12-06T14:08:36.651Z,99509.84
2022-12-06T14:11:26.490Z,99508.41
2022-12-06T14:13:56.018Z,99510.44
2022-12-06T14:16:35.241Z,99501.72
2022-12-06T14:19:20.257Z,99505.56
2022-12-06T14:21:55.806Z,99512.78
2022-12-06T14:24:37.964Z,99512.97
2022-12-06T14:27:14.797Z,99512.22
2022-12-06T14:29:43.661Z,99512.88
2022-12-06T14:32:10.701Z,99510.81
2022-12-06T14:34:37.392Z,99507.19
2022-12-06T14:37:22.727Z,99514.41
2022-12-06T14:39:53.203Z,99509.00
2022-12-06T14:42:38.371Z,99509.94
2022-12-06T14:45:13.323Z,99510.03
2022-12-06T14:47:39.956Z,99513.56
2022-12-06T14:50:25.971Z,99510.28
2022-12-06T14:53:02.875Z,99516.50
2022-12-06T14:55:51.328Z,99520.97
2022-12-06T14:58:22.444Z,99519.16
2022-12-06T15:01:12.282Z,99522.66
2022-12-06T15:03:39.098Z,99512.25
2022-12-06T15:06:19.455Z,99514.34
2022-12-06T15:08:50.540Z,99517.09
2022-12-06T15:11:38.651Z,99514.53
2022-12-06T15:14:22.887Z,99509.41
2022-12-06T15:17:01.838Z,99510.16
2022-12-06T15:19:33.973Z,99509.69
2022-12-06T15:22:00.755Z,99515.31
2022-12-06T15:24:28.262Z,99510.91
2022-12-06T15:26:54.801Z,99512.34
2022-12-06T15:29:22.330Z,99511.31
2022-12-06T15:31:54.209Z,99526.59
2022-12-06T15:34:31.952Z,99512.25
2022-12-06T15:37:30.352Z,99512.06
2022-12-06T15:39:46.503Z,99516.44
2022-12-06T15:42:23.774Z,99516.72
2022-12-06T15:44:50.898Z,99520.41
2022-12-06T15:47:19.547Z,99512.44
2022-12-06T15:49:46.466Z,99519.75
2022-12-06T15:52:18.364Z,99511.50
2022-12-06T15:54:45.019Z,99504.47
2022-12-06T15:57:11.537Z,99511.47
2022-12-06T15:59:37.899Z,99515.66
2022-12-06T16:02:12.204Z,99516.22
2022-12-06T16:04:38.978Z,99510.66
2022-12-06T16:07:05.565Z,99506.84
2022-12-06T16:09:31.924Z,99513.31
2022-12-06T16:11:58.451Z,99516.63
2022-12-06T16:14:24.877Z,99518.72
2022-12-06T16:16:51.433Z,99524.03
2022-12-06T16:19:17.837Z,99509.78
2022-12-06T16:21:52.074Z,99510.66
2022-12-06T16:24:18.530Z,99506.28
2022-12-06T16:26:46.044Z,99513.59
2022-12-06T16:29:17.811Z,99503.63
2022-12-06T16:31:45.266Z,99506.19
2022-12-06T16:34:11.997Z,99517.00
2022-12-06T16:37:01.017Z,99517.19
2022-12-06T16:39:29.597Z,99510.75
2022-12-06T16:41:56.098Z,99519.97
2022-12-06T16:44:22.881Z,99517.09
2022-12-06T16:46:49.633Z,99514.44
2022-12-06T16:49:45.432Z,99506.38
2022-12-06T16:52:08.209Z,99515.19
2022-12-06T16:54:35.190Z,99513.59
2022-12-06T16:57:01.590Z,99509.34
2022-12-06T16:59:28.115Z,99511.22
2022-12-06T17:01:55.169Z,99517.41
2022-12-06T17:04:22.187Z,99519.97
2022-12-06T17:06:49.950Z,99517.59
2022-12-06T17:09:16.551Z,99522.91
2022-12-06T17:12:01.811Z,99515.13
2022-12-06T17:14:28.702Z,99518.84
2022-12-06T17:16:55.535Z,99513.97
2022-12-06T17:19:27.850Z,99515.31
2022-12-06T17:21:54.416Z,99514.94
2022-12-06T17:24:21.590Z,99509.34
2022-12-06T17:26:48.220Z,99510.88
2022-12-06T17:29:14.715Z,99517.03
2022-12-06T17:31:41.285Z,99508.22
2022-12-06T17:34:08.316Z,99513.81
2022-12-06T17:36:35.789Z,99507.34
2022-12-06T17:39:05.448Z,99507.06
2022-12-06T17:41:52.212Z,99511.16
2022-12-06T17:44:19.180Z,99514.06
2022-12-06T17:46:46.173Z,99509.53
2022-12-06T17:49:14.783Z,99507.75
2022-12-06T17:51:41.474Z,99512.97
2022-12-06T17:54:09.567Z,99504.13
2022-12-06T17:56:43.980Z,99503.38
2022-12-06T17:59:13.444Z,99508.84
2022-12-06T18:02:12.871Z,99507.91
2022-12-06T18:04:28.846Z,99499.38
2022-12-06T18:06:55.696Z,99508.19
2022-12-06T18:09:22.227Z,99511.69
2022-12-06T18:11:49.437Z,99511.50
2022-12-06T18:14:16.272Z,99521.94
2022-12-06T18:16:45.872Z,99513.97
2022-12-06T18:19:15.659Z,99520.03
2022-12-06T18:21:42.763Z,99511.16
2022-12-06T18:24:21.374Z,99508.31
2022-12-06T18:26:49.262Z,99507.53
2022-12-06T18:29:18.434Z,99509.59
2022-12-06T18:31:45.610Z,99505.34
2022-12-06T18:34:12.794Z,99507.53
2022-12-06T18:36:40.409Z,99502.69
2022-12-06T18:39:14.390Z,99502.63
2022-12-06T18:41:41.912Z,99505.19
2022-12-06T18:44:10.823Z,99504.50
2022-12-06T18:46:38.780Z,99505.00
2022-12-06T18:49:06.019Z,99505.53
2022-12-06T18:51:34.613Z,99510.94
2022-12-06T18:54:03.018Z,99507.84
2022-12-06T18:56:30.493Z,99511.59
2022-12-06T18:59:02.238Z,99511.69
2022-12-06T19:01:31.856Z,99502.34
2022-12-06T19:04:00.539Z,99503.84
2022-12-06T19:06:29.383Z,99515.66
2022-12-06T19:08:58.063Z,99500.72
2022-12-06T19:11:24.733Z,99503.16
2022-12-06T19:13:53.553Z,99503.63
2022-12-06T19:16:29.348Z,99513.59
2022-12-06T19:18:58.165Z,99506.28
2022-12-06T19:21:25.014Z,99507.16
2022-12-06T19:23:56.009Z,99508.00
2022-12-06T19:26:23.257Z,99498.06
2022-12-06T19:28:50.604Z,99500.06
2022-12-06T19:31:17.536Z,99500.25
2022-12-06T19:33:48.389Z,99499.94
2022-12-06T19:36:16.039Z,99502.97
2022-12-06T19:38:43.207Z,99504.88
2022-12-06T19:41:14.843Z,99495.31
2022-12-06T19:44:00.312Z,99497.19
2022-12-06T19:46:28.266Z,99504.66
2022-12-06T19:49:00.272Z,99505.25
2022-12-06T19:51:28.908Z,99501.75
2022-12-06T19:53:57.947Z,99501.00
2022-12-06T19:56:25.726Z,99495.88
2022-12-06T19:58:53.275Z,99508.28
2022-12-06T20:01:21.823Z,99509.03
2022-12-06T20:03:48.537Z,99514.34
2022-12-06T20:06:20.439Z,99508.00
2022-12-06T20:08:47.427Z,99506.22
2022-12-06T20:11:35.920Z,99511.59
2022-12-06T20:14:04.801Z,99501.94
2022-12-06T20:16:33.039Z,99496.34
2022-12-06T20:18:59.630Z,99501.09
2022-12-06T20:21:26.281Z,99504.03
2022-12-06T20:23:53.257Z,99504.88
2022-12-06T20:26:20.044Z,99497.09
2022-12-06T20:28:47.804Z,99490.19
2022-12-06T20:31:19.453Z,99499.47
2022-12-06T20:33:46.410Z,99505.72
2022-12-06T20:36:15.053Z,99493.22
2022-12-06T20:38:41.502Z,99498.34
2022-12-06T20:41:13.138Z,99498.59
2022-12-06T20:43:40.676Z,99500.72
2022-12-06T20:46:14.854Z,99496.72
2022-12-06T20:48:43.177Z,99487.63
2022-12-06T20:51:16.335Z,99486.88
2022-12-06T20:53:43.475Z,99480.63
2022-12-06T20:56:12.592Z,99479.84
2022-12-06T20:58:39.466Z,99479.97
2022-12-06T21:01:06.590Z,99470.13
2022-12-06T21:03:33.102Z,99477.31
2022-12-06T21:06:01.997Z,99475.88
2022-12-06T21:08:28.677Z,99468.97
2022-12-06T21:11:21.585Z,99472.28
2022-12-06T21:13:42.607Z,99475.13
2022-12-06T21:16:14.889Z,99471.16
2022-12-06T21:18:42.049Z,99462.53
2022-12-06T21:21:09.083Z,99471.34
2022-12-06T21:23:35.776Z,99465.09
2022-12-06T21:26:04.416Z,99466.16
2022-12-06T21:28:32.029Z,99468.81
2022-12-06T21:30:59.228Z,99461.09
2022-12-06T21:33:26.022Z,99459.78
2022-12-06T21:35:53.077Z,99469.81
2022-12-06T21:38:21.276Z,99460.63
2022-12-06T21:40:53.713Z,99446.69
2022-12-06T21:43:22.076Z,99461.50
2022-12-06T21:45:48.476Z,99457.50
2022-12-06T21:48:15.058Z,99448.22
2022-12-06T21:50:41.459Z,99458.44
2022-12-06T21:53:07.859Z,99461.50
2022-12-06T21:55:34.462Z,99470.22
2022-12-06T21:58:00.884Z,99466.41
2022-12-06T22:00:27.459Z,99466.16
2022-12-06T22:02:54.058Z,99466.59
2022-12-06T22:05:20.910Z,99468.13
2022-12-06T22:07:47.447Z,99472.28
2022-12-06T22:10:13.971Z,99463.00
2022-12-06T22:12:40.537Z,99462.53
2022-12-06T22:15:07.534Z,99462.63
2022-12-06T22:17:33.996Z,99460.72
2022-12-06T22:20:00.873Z,99460.34
2022-12-06T22:22:27.539Z,99461.09
2022-12-06T22:24:54.146Z,99454.28
2022-12-06T22:27:20.527Z,99461.41
2022-12-06T22:29:47.681Z,99462.44
2022-12-06T22:32:14.082Z,99460.16
2022-12-06T22:34:40.619Z,99457.78
2022-12-06T22:37:07.085Z,99453.91
2022-12-06T22:39:33.569Z,99467.00
2022-12-06T22:42:00.034Z,99462.81
2022-12-06T22:44:26.503Z,99450.66
2022-12-06T22:46:52.982Z,99462.63
2022-12-06T22:49:19.399Z,99453.53
2022-12-06T22:51:45.964Z,99449.81
2022-12-06T22:54:13.642Z,99449.16
2022-12-06T22:56:47.138Z,99455.16
2022-12-06T22:59:14.417Z,99464.34
2022-12-06T23:01:40.973Z,99459.41
2022-12-06T23:04:07.893Z,99458.66
2022-12-06T23:06:35.731Z,99457.13
2022-12-06T23:09:04.137Z,99452.41
2022-12-06T23:11:32.669Z,99451.81
2022-12-06T23:13:59.623Z,99459.22
2022-12-06T23:16:29.006Z,99452.19
2022-12-06T23:18:56.459Z,99444.22
2022-12-06T23:21:26.134Z,99445.09
2022-12-06T23:23:59.272Z,99441.31
2022-12-06T23:26:31.746Z,99442.44
2022-12-06T23:28:58.193Z,99433.44
2022-12-06T23:31:27.736Z,99439.13
2022-12-06T23:33:59.330Z,99439.91
2022-12-06T23:36:28.549Z,99430.88
2022-12-06T23:38:55.680Z,99430.88
2022-12-06T23:41:25.180Z,99428.31
2022-12-06T23:43:53.497Z,99431.25
2022-12-06T23:46:22.926Z,99423.97
2022-12-06T23:48:50.632Z,99427.00
2022-12-06T23:51:20.423Z,99427.00
2022-12-06T23:53:52.816Z,99430.59
2022-12-06T23:56:21.063Z,99431.75
2022-12-06T23:58:50.410Z,99423.56
